Impacts TAF Board
For situational awareness. Not to be used for flight planning purposes.
IDs:

KTPA - Tampa Intl Arpt, FL, US

Issued at 1134 UTC 10 Aug 2022
Updated at 1506 UTC 10 Aug 2022
Potential Impact None Slight Moderate High
Time1453Z 10/16Z 10/17Z 10/18Z 10/19Z 10/20Z 10/21Z 10/22Z 10/23Z 11/00Z 11/01Z 11/02Z 11/03Z 11/04Z>>
Type OBS PRVL PRVL PRVL PRVL PRVL PRVL PRVL PRVL PRVL PRVL PRVL PRVL PRVL
VIS 10 >6 >6 >6 >6 >6 >6 >6 >6 >6 >6 >6 >6 >6
CIG 280 -- -- -- -- -- -- -- -- 250 250 250 250 250
Cover BKN SCT SCT SCT SCT SCT SCT SCT SCT BKN BKN BKN BKN BKN
FltCat VFR VFR VFR VFR VFR VFR VFR VFR VFR VFR VFR VFR VFR VFR
WX -- -- -- -- -- -- -- -- -- VCTS VCTS VCTS -- --
WDir 130 130 130 130 130 130 130 130 130 220 220 220 VRB VRB
WSpd 8 6 6 6 6 6 6 6 6 8 8 8 3 3
WGst -- -- -- -- -- -- -- -- -- -- -- -- -- --
WSHgt -- -- -- -- -- -- -- -- -- -- -- -- -- --
WSDir -- -- -- -- -- -- -- -- -- -- -- -- -- --
WSSpd -- -- -- -- -- -- -- -- -- -- -- -- -- --
Raw TAF
KTPA 101134Z 1012/1118 10004KT P6SM FEW008 FEW140
  FM101400 13006KT P6SM FEW025 SCT250
  FM110000 22008KT P6SM VCTS SCT040CB BKN250
  FM110300 VRB03KT P6SM SCT025 BKN250
  FM111400 16005KT P6SM FEW025 SCT200


Raw METAR
KTPA 101453Z 13008KT 10SM SCT020 BKN280 31/24 A3020 RMK AO2 SLP227 T03060244 53013
KTPA 101353Z 14006KT 9SM FEW020 SCT150 BKN280 29/25 A3019 RMK AO2 SLP221 T02940250
KTPA 101253Z 12008KT 8SM SCT200 BKN280 28/25 A3017 RMK AO2 SLP216 T02830250

METAR Board
Radar Display
Forecast Discussion
For situational awareness. Not to be used for flight planning purposes.